sensor_id;sensor_type;location;lat;lon;timestamp;temperature;humidity
22069;DHT22;13887;57.196;-2.100;2023-05-10T00:01:29;11.92;90.28
22069;DHT22;13887;57.196;-2.100;2023-05-10T00:03:55;11.93;90.24
22069;DHT22;13887;57.196;-2.100;2023-05-10T00:06:23;11.94;90.16
22069;DHT22;13887;57.196;-2.100;2023-05-10T00:08:49;11.93;90.23
22069;DHT22;13887;57.196;-2.100;2023-05-10T00:11:16;11.90;90.30
22069;DHT22;13887;57.196;-2.100;2023-05-10T00:13:43;11.88;90.28
22069;DHT22;13887;57.196;-2.100;2023-05-10T00:16:10;11.88;90.34
22069;DHT22;13887;57.196;-2.100;2023-05-10T00:18:39;11.85;90.40
22069;DHT22;13887;57.196;-2.100;2023-05-10T00:21:06;11.82;90.48
22069;DHT22;13887;57.196;-2.100;2023-05-10T00:23:33;11.82;90.50
22069;DHT22;13887;57.196;-2.100;2023-05-10T00:25:59;11.84;90.50
22069;DHT22;13887;57.196;-2.100;2023-05-10T00:28:27;11.86;90.30
22069;DHT22;13887;57.196;-2.100;2023-05-10T00:30:55;11.83;90.31
22069;DHT22;13887;57.196;-2.100;2023-05-10T00:33:22;11.82;90.33
22069;DHT22;13887;57.196;-2.100;2023-05-10T00:35:49;11.84;90.21
22069;DHT22;13887;57.196;-2.100;2023-05-10T00:38:17;11.81;90.28
22069;DHT22;13887;57.196;-2.100;2023-05-10T00:40:44;11.77;90.31
22069;DHT22;13887;57.196;-2.100;2023-05-10T00:43:19;11.76;90.36
22069;DHT22;13887;57.196;-2.100;2023-05-10T00:45:46;11.75;90.34
22069;DHT22;13887;57.196;-2.100;2023-05-10T00:48:13;11.76;90.32
22069;DHT22;13887;57.196;-2.100;2023-05-10T00:50:41;11.76;90.34
22069;DHT22;13887;57.196;-2.100;2023-05-10T00:53:08;11.78;90.24
22069;DHT22;13887;57.196;-2.100;2023-05-10T00:55:35;11.78;90.20
22069;DHT22;13887;57.196;-2.100;2023-05-10T00:58:03;11.76;90.29
22069;DHT22;13887;57.196;-2.100;2023-05-10T01:00:32;11.77;90.21
22069;DHT22;13887;57.196;-2.100;2023-05-10T01:03:26;11.75;90.09
22069;DHT22;13887;57.196;-2.100;2023-05-10T01:05:53;11.73;90.21
22069;DHT22;13887;57.196;-2.100;2023-05-10T01:08:21;11.73;90.14
22069;DHT22;13887;57.196;-2.100;2023-05-10T01:10:49;11.73;90.13
22069;DHT22;13887;57.196;-2.100;2023-05-10T01:15:59;11.73;90.08
22069;DHT22;13887;57.196;-2.100;2023-05-10T01:18:33;11.72;90.01
22069;DHT22;13887;57.196;-2.100;2023-05-10T01:21:07;11.70;90.02
22069;DHT22;13887;57.196;-2.100;2023-05-10T01:29:17;11.69;90.08
22069;DHT22;13887;57.196;-2.100;2023-05-10T01:38:11;11.64;90.05
22069;DHT22;13887;57.196;-2.100;2023-05-10T01:40:52;11.63;90.02
22069;DHT22;13887;57.196;-2.100;2023-05-10T01:43:25;11.60;90.20
22069;DHT22;13887;57.196;-2.100;2023-05-10T01:46:09;11.61;90.12
22069;DHT22;13887;57.196;-2.100;2023-05-10T01:48:41;11.61;89.99
22069;DHT22;13887;57.196;-2.100;2023-05-10T01:51:21;11.63;89.85
22069;DHT22;13887;57.196;-2.100;2023-05-10T01:53:51;11.63;89.73
22069;DHT22;13887;57.196;-2.100;2023-05-10T01:56:24;11.57;89.94
22069;DHT22;13887;57.196;-2.100;2023-05-10T01:58:52;11.54;90.05
22069;DHT22;13887;57.196;-2.100;2023-05-10T02:01:21;11.58;90.00
22069;DHT22;13887;57.196;-2.100;2023-05-10T02:03:51;11.56;90.06
22069;DHT22;13887;57.196;-2.100;2023-05-10T02:06:20;11.56;90.00
22069;DHT22;13887;57.196;-2.100;2023-05-10T02:08:49;11.57;90.02
22069;DHT22;13887;57.196;-2.100;2023-05-10T02:11:17;11.58;89.99
22069;DHT22;13887;57.196;-2.100;2023-05-10T02:13:45;11.55;90.06
22069;DHT22;13887;57.196;-2.100;2023-05-10T02:16:14;11.55;90.02
22069;DHT22;13887;57.196;-2.100;2023-05-10T02:18:43;11.55;90.10
22069;DHT22;13887;57.196;-2.100;2023-05-10T02:21:10;11.54;90.12
22069;DHT22;13887;57.196;-2.100;2023-05-10T02:23:38;11.52;90.22
22069;DHT22;13887;57.196;-2.100;2023-05-10T02:26:06;11.51;90.28
22069;DHT22;13887;57.196;-2.100;2023-05-10T02:28:35;11.51;90.37
22069;DHT22;13887;57.196;-2.100;2023-05-10T02:31:05;11.47;90.45
22069;DHT22;13887;57.196;-2.100;2023-05-10T02:33:33;11.49;90.48
22069;DHT22;13887;57.196;-2.100;2023-05-10T02:36:02;11.54;90.36
22069;DHT22;13887;57.196;-2.100;2023-05-10T02:38:30;11.51;90.40
22069;DHT22;13887;57.196;-2.100;2023-05-10T02:40:59;11.48;90.44
22069;DHT22;13887;57.196;-2.100;2023-05-10T02:43:26;11.48;90.46
22069;DHT22;13887;57.196;-2.100;2023-05-10T02:45:55;11.53;90.30
22069;DHT22;13887;57.196;-2.100;2023-05-10T02:48:22;11.53;90.24
22069;DHT22;13887;57.196;-2.100;2023-05-10T02:50:50;11.54;90.06
22069;DHT22;13887;57.196;-2.100;2023-05-10T02:53:23;11.51;90.15
22069;DHT22;13887;57.196;-2.100;2023-05-10T02:55:54;11.48;90.21
22069;DHT22;13887;57.196;-2.100;2023-05-10T02:58:24;11.48;90.31
22069;DHT22;13887;57.196;-2.100;2023-05-10T03:00:51;11.48;90.31
22069;DHT22;13887;57.196;-2.100;2023-05-10T03:03:18;11.47;90.28
22069;DHT22;13887;57.196;-2.100;2023-05-10T03:05:48;11.52;90.31
22069;DHT22;13887;57.196;-2.100;2023-05-10T03:08:15;11.51;90.22
22069;DHT22;13887;57.196;-2.100;2023-05-10T03:11:08;11.51;90.11
22069;DHT22;13887;57.196;-2.100;2023-05-10T03:16:56;11.47;90.15
22069;DHT22;13887;57.196;-2.100;2023-05-10T03:19:29;11.45;90.21
22069;DHT22;13887;57.196;-2.100;2023-05-10T03:21:59;11.44;90.28
22069;DHT22;13887;57.196;-2.100;2023-05-10T03:24:34;11.46;90.22
22069;DHT22;13887;57.196;-2.100;2023-05-10T03:27:03;11.43;90.23
22069;DHT22;13887;57.196;-2.100;2023-05-10T03:29:31;11.43;90.26
22069;DHT22;13887;57.196;-2.100;2023-05-10T03:31:59;11.41;90.26
22069;DHT22;13887;57.196;-2.100;2023-05-10T03:34:29;11.42;90.32
22069;DHT22;13887;57.196;-2.100;2023-05-10T03:36:57;11.43;90.24
22069;DHT22;13887;57.196;-2.100;2023-05-10T03:39:26;11.44;90.15
22069;DHT22;13887;57.196;-2.100;2023-05-10T03:41:56;11.43;90.21
22069;DHT22;13887;57.196;-2.100;2023-05-10T03:44:23;11.45;90.18
22069;DHT22;13887;57.196;-2.100;2023-05-10T03:46:50;11.45;90.12
22069;DHT22;13887;57.196;-2.100;2023-05-10T03:49:17;11.44;90.13
22069;DHT22;13887;57.196;-2.100;2023-05-10T03:51:44;11.46;90.19
22069;DHT22;13887;57.196;-2.100;2023-05-10T03:54:11;11.44;90.16
22069;DHT22;13887;57.196;-2.100;2023-05-10T03:56:38;11.46;90.08
22069;DHT22;13887;57.196;-2.100;2023-05-10T03:59:05;11.46;90.07
22069;DHT22;13887;57.196;-2.100;2023-05-10T04:01:34;11.47;90.09
22069;DHT22;13887;57.196;-2.100;2023-05-10T04:04:02;11.49;89.85
22069;DHT22;13887;57.196;-2.100;2023-05-10T04:06:30;11.51;89.86
22069;DHT22;13887;57.196;-2.100;2023-05-10T04:08:57;11.52;89.71
22069;DHT22;13887;57.196;-2.100;2023-05-10T04:11:26;11.51;89.78
22069;DHT22;13887;57.196;-2.100;2023-05-10T04:13:53;11.51;89.81
22069;DHT22;13887;57.196;-2.100;2023-05-10T04:16:20;11.47;89.84
22069;DHT22;13887;57.196;-2.100;2023-05-10T04:18:47;11.44;90.01
22069;DHT22;13887;57.196;-2.100;2023-05-10T04:21:14;11.44;90.15
22069;DHT22;13887;57.196;-2.100;2023-05-10T04:23:41;11.47;90.02
22069;DHT22;13887;57.196;-2.100;2023-05-10T04:26:08;11.45;90.03
22069;DHT22;13887;57.196;-2.100;2023-05-10T04:28:35;11.46;89.98
22069;DHT22;13887;57.196;-2.100;2023-05-10T04:31:07;11.46;89.86
22069;DHT22;13887;57.196;-2.100;2023-05-10T04:33:35;11.45;89.89
22069;DHT22;13887;57.196;-2.100;2023-05-10T04:36:02;11.43;89.93
22069;DHT22;13887;57.196;-2.100;2023-05-10T04:38:29;11.44;90.02
22069;DHT22;13887;57.196;-2.100;2023-05-10T04:41:07;11.45;89.96
22069;DHT22;13887;57.196;-2.100;2023-05-10T04:43:35;11.42;89.88
22069;DHT22;13887;57.196;-2.100;2023-05-10T04:46:03;11.42;89.88
22069;DHT22;13887;57.196;-2.100;2023-05-10T04:48:30;11.40;89.89
22069;DHT22;13887;57.196;-2.100;2023-05-10T04:50:57;11.41;89.93
22069;DHT22;13887;57.196;-2.100;2023-05-10T04:53:24;11.41;89.86
22069;DHT22;13887;57.196;-2.100;2023-05-10T04:55:51;11.42;89.88
22069;DHT22;13887;57.196;-2.100;2023-05-10T04:58:18;11.40;89.77
22069;DHT22;13887;57.196;-2.100;2023-05-10T05:00:45;11.41;89.84
22069;DHT22;13887;57.196;-2.100;2023-05-10T05:03:12;11.41;89.79
22069;DHT22;13887;57.196;-2.100;2023-05-10T05:05:39;11.38;89.87
22069;DHT22;13887;57.196;-2.100;2023-05-10T05:08:06;11.39;89.75
22069;DHT22;13887;57.196;-2.100;2023-05-10T05:10:33;11.37;89.81
22069;DHT22;13887;57.196;-2.100;2023-05-10T05:12:59;11.36;89.78
22069;DHT22;13887;57.196;-2.100;2023-05-10T05:15:27;11.38;89.73
22069;DHT22;13887;57.196;-2.100;2023-05-10T05:17:54;11.39;89.80
22069;DHT22;13887;57.196;-2.100;2023-05-10T05:20:20;11.40;89.63
22069;DHT22;13887;57.196;-2.100;2023-05-10T05:22:48;11.38;89.65
22069;DHT22;13887;57.196;-2.100;2023-05-10T05:25:15;11.38;89.69
22069;DHT22;13887;57.196;-2.100;2023-05-10T05:27:42;11.38;89.59
22069;DHT22;13887;57.196;-2.100;2023-05-10T05:30:09;11.34;89.72
22069;DHT22;13887;57.196;-2.100;2023-05-10T05:32:36;11.37;89.70
22069;DHT22;13887;57.196;-2.100;2023-05-10T05:35:03;11.36;89.63
22069;DHT22;13887;57.196;-2.100;2023-05-10T05:37:30;11.37;89.56
22069;DHT22;13887;57.196;-2.100;2023-05-10T05:39:57;11.36;89.50
22069;DHT22;13887;57.196;-2.100;2023-05-10T05:42:24;11.32;89.61
22069;DHT22;13887;57.196;-2.100;2023-05-10T05:44:52;11.32;89.76
22069;DHT22;13887;57.196;-2.100;2023-05-10T05:47:19;11.32;89.74
22069;DHT22;13887;57.196;-2.100;2023-05-10T05:49:45;11.33;89.76
22069;DHT22;13887;57.196;-2.100;2023-05-10T05:52:13;11.33;89.56
22069;DHT22;13887;57.196;-2.100;2023-05-10T05:54:39;11.32;89.63
22069;DHT22;13887;57.196;-2.100;2023-05-10T05:57:06;11.33;89.52
22069;DHT22;13887;57.196;-2.100;2023-05-10T05:59:34;11.31;89.75
22069;DHT22;13887;57.196;-2.100;2023-05-10T06:02:01;11.33;89.66
22069;DHT22;13887;57.196;-2.100;2023-05-10T06:04:28;11.34;89.60
22069;DHT22;13887;57.196;-2.100;2023-05-10T06:06:55;11.36;89.55
22069;DHT22;13887;57.196;-2.100;2023-05-10T06:09:22;11.34;89.52
22069;DHT22;13887;57.196;-2.100;2023-05-10T06:11:51;11.36;89.43
22069;DHT22;13887;57.196;-2.100;2023-05-10T06:14:20;11.33;89.50
22069;DHT22;13887;57.196;-2.100;2023-05-10T06:16:47;11.30;89.73
22069;DHT22;13887;57.196;-2.100;2023-05-10T06:19:14;11.29;89.86
22069;DHT22;13887;57.196;-2.100;2023-05-10T06:21:41;11.29;89.86
22069;DHT22;13887;57.196;-2.100;2023-05-10T06:24:08;11.24;90.05
22069;DHT22;13887;57.196;-2.100;2023-05-10T06:26:35;11.24;90.08
22069;DHT22;13887;57.196;-2.100;2023-05-10T06:29:02;11.24;90.13
22069;DHT22;13887;57.196;-2.100;2023-05-10T06:31:29;11.24;90.12
22069;DHT22;13887;57.196;-2.100;2023-05-10T06:33:56;11.23;90.15
22069;DHT22;13887;57.196;-2.100;2023-05-10T06:36:23;11.23;90.19
22069;DHT22;13887;57.196;-2.100;2023-05-10T06:38:51;11.20;90.18
22069;DHT22;13887;57.196;-2.100;2023-05-10T06:41:18;11.22;90.14
22069;DHT22;13887;57.196;-2.100;2023-05-10T06:43:45;11.23;90.23
22069;DHT22;13887;57.196;-2.100;2023-05-10T06:46:12;11.23;90.20
22069;DHT22;13887;57.196;-2.100;2023-05-10T06:48:39;11.20;90.40
22069;DHT22;13887;57.196;-2.100;2023-05-10T06:51:06;11.24;90.38
22069;DHT22;13887;57.196;-2.100;2023-05-10T06:53:32;11.22;90.29
22069;DHT22;13887;57.196;-2.100;2023-05-10T06:55:59;11.19;90.37
22069;DHT22;13887;57.196;-2.100;2023-05-10T06:58:26;11.23;90.18
22069;DHT22;13887;57.196;-2.100;2023-05-10T07:00:54;11.23;90.25
22069;DHT22;13887;57.196;-2.100;2023-05-10T07:03:27;11.22;90.31
22069;DHT22;13887;57.196;-2.100;2023-05-10T07:06:00;11.23;90.27
22069;DHT22;13887;57.196;-2.100;2023-05-10T07:08:31;11.05;90.95
22069;DHT22;13887;57.196;-2.100;2023-05-10T07:11:05;11.00;91.54
22069;DHT22;13887;57.196;-2.100;2023-05-10T07:13:35;11.09;91.01
22069;DHT22;13887;57.196;-2.100;2023-05-10T07:16:03;11.17;90.66
22069;DHT22;13887;57.196;-2.100;2023-05-10T07:18:30;11.17;90.47
22069;DHT22;13887;57.196;-2.100;2023-05-10T07:20:57;11.19;90.30
22069;DHT22;13887;57.196;-2.100;2023-05-10T07:23:24;11.20;90.40
22069;DHT22;13887;57.196;-2.100;2023-05-10T07:25:51;11.24;90.28
22069;DHT22;13887;57.196;-2.100;2023-05-10T07:28:18;11.26;89.95
22069;DHT22;13887;57.196;-2.100;2023-05-10T07:30:46;11.25;90.17
22069;DHT22;13887;57.196;-2.100;2023-05-10T07:33:13;11.28;89.92
22069;DHT22;13887;57.196;-2.100;2023-05-10T07:35:41;11.25;89.76
22069;DHT22;13887;57.196;-2.100;2023-05-10T07:38:08;11.25;89.78
22069;DHT22;13887;57.196;-2.100;2023-05-10T07:40:37;11.24;89.89
22069;DHT22;13887;57.196;-2.100;2023-05-10T07:43:05;11.24;89.84
22069;DHT22;13887;57.196;-2.100;2023-05-10T07:45:33;11.23;90.06
22069;DHT22;13887;57.196;-2.100;2023-05-10T07:48:00;11.24;90.07
22069;DHT22;13887;57.196;-2.100;2023-05-10T07:50:27;11.22;90.18
22069;DHT22;13887;57.196;-2.100;2023-05-10T07:52:54;11.18;90.42
22069;DHT22;13887;57.196;-2.100;2023-05-10T07:55:21;11.19;90.41
22069;DHT22;13887;57.196;-2.100;2023-05-10T07:57:48;11.17;90.60
22069;DHT22;13887;57.196;-2.100;2023-05-10T08:00:18;11.19;90.60
22069;DHT22;13887;57.196;-2.100;2023-05-10T08:02:46;11.20;90.49
22069;DHT22;13887;57.196;-2.100;2023-05-10T08:05:13;11.24;90.27
22069;DHT22;13887;57.196;-2.100;2023-05-10T08:07:41;11.25;90.31
22069;DHT22;13887;57.196;-2.100;2023-05-10T08:10:09;11.22;90.20
22069;DHT22;13887;57.196;-2.100;2023-05-10T08:12:38;11.23;90.37
22069;DHT22;13887;57.196;-2.100;2023-05-10T08:15:05;11.25;90.41
22069;DHT22;13887;57.196;-2.100;2023-05-10T08:17:33;11.22;90.16
22069;DHT22;13887;57.196;-2.100;2023-05-10T08:20:00;11.18;90.24
22069;DHT22;13887;57.196;-2.100;2023-05-10T08:22:27;11.15;90.73
22069;DHT22;13887;57.196;-2.100;2023-05-10T08:24:54;11.16;90.73
22069;DHT22;13887;57.196;-2.100;2023-05-10T08:27:21;11.16;90.59
22069;DHT22;13887;57.196;-2.100;2023-05-10T08:29:48;11.17;90.51
22069;DHT22;13887;57.196;-2.100;2023-05-10T08:32:17;11.17;90.47
22069;DHT22;13887;57.196;-2.100;2023-05-10T08:34:43;11.18;90.35
22069;DHT22;13887;57.196;-2.100;2023-05-10T08:37:11;11.19;90.43
22069;DHT22;13887;57.196;-2.100;2023-05-10T08:39:40;11.19;90.47
22069;DHT22;13887;57.196;-2.100;2023-05-10T08:42:07;11.17;90.66
22069;DHT22;13887;57.196;-2.100;2023-05-10T08:44:36;11.18;90.60
22069;DHT22;13887;57.196;-2.100;2023-05-10T08:47:06;11.24;90.31
22069;DHT22;13887;57.196;-2.100;2023-05-10T08:49:34;11.23;90.31
22069;DHT22;13887;57.196;-2.100;2023-05-10T08:52:03;11.22;90.32
22069;DHT22;13887;57.196;-2.100;2023-05-10T08:54:33;11.24;90.35
22069;DHT22;13887;57.196;-2.100;2023-05-10T08:57:00;11.20;90.43
22069;DHT22;13887;57.196;-2.100;2023-05-10T08:59:27;11.18;90.63
22069;DHT22;13887;57.196;-2.100;2023-05-10T09:01:57;11.15;90.84
22069;DHT22;13887;57.196;-2.100;2023-05-10T09:04:25;11.16;90.79
22069;DHT22;13887;57.196;-2.100;2023-05-10T09:06:52;11.18;90.75
22069;DHT22;13887;57.196;-2.100;2023-05-10T09:09:20;11.17;90.67
22069;DHT22;13887;57.196;-2.100;2023-05-10T09:11:48;11.19;90.67
22069;DHT22;13887;57.196;-2.100;2023-05-10T09:14:15;11.25;90.35
22069;DHT22;13887;57.196;-2.100;2023-05-10T09:16:42;11.25;90.41
22069;DHT22;13887;57.196;-2.100;2023-05-10T09:19:09;11.26;90.36
22069;DHT22;13887;57.196;-2.100;2023-05-10T09:21:36;11.29;90.31
22069;DHT22;13887;57.196;-2.100;2023-05-10T09:24:08;11.29;90.30
22069;DHT22;13887;57.196;-2.100;2023-05-10T09:26:35;11.26;90.48
22069;DHT22;13887;57.196;-2.100;2023-05-10T09:29:12;11.23;90.60
22069;DHT22;13887;57.196;-2.100;2023-05-10T09:31:52;11.26;90.46
22069;DHT22;13887;57.196;-2.100;2023-05-10T09:34:31;11.30;90.42
22069;DHT22;13887;57.196;-2.100;2023-05-10T09:37:01;11.31;90.51
22069;DHT22;13887;57.196;-2.100;2023-05-10T09:39:38;11.33;90.21
22069;DHT22;13887;57.196;-2.100;2023-05-10T09:42:06;11.33;90.20
22069;DHT22;13887;57.196;-2.100;2023-05-10T09:44:34;11.36;90.28
22069;DHT22;13887;57.196;-2.100;2023-05-10T09:47:02;11.34;90.08
22069;DHT22;13887;57.196;-2.100;2023-05-10T09:49:29;11.36;89.99
22069;DHT22;13887;57.196;-2.100;2023-05-10T09:52:07;11.37;90.22
22069;DHT22;13887;57.196;-2.100;2023-05-10T09:54:34;11.40;90.17
22069;DHT22;13887;57.196;-2.100;2023-05-10T09:57:02;11.41;90.21
22069;DHT22;13887;57.196;-2.100;2023-05-10T09:59:29;11.39;90.28
22069;DHT22;13887;57.196;-2.100;2023-05-10T10:01:59;11.43;90.19
22069;DHT22;13887;57.196;-2.100;2023-05-10T10:04:27;11.41;90.34
22069;DHT22;13887;57.196;-2.100;2023-05-10T10:07:04;11.44;90.20
22069;DHT22;13887;57.196;-2.100;2023-05-10T10:09:33;11.42;90.37
22069;DHT22;13887;57.196;-2.100;2023-05-10T10:12:03;11.45;90.20
22069;DHT22;13887;57.196;-2.100;2023-05-10T10:14:31;11.45;90.10
22069;DHT22;13887;57.196;-2.100;2023-05-10T10:17:00;11.44;90.21
22069;DHT22;13887;57.196;-2.100;2023-05-10T10:19:35;11.38;90.02
22069;DHT22;13887;57.196;-2.100;2023-05-10T10:22:03;11.34;90.42
22069;DHT22;13887;57.196;-2.100;2023-05-10T10:24:30;11.37;90.16
22069;DHT22;13887;57.196;-2.100;2023-05-10T10:27:02;11.37;90.00
22069;DHT22;13887;57.196;-2.100;2023-05-10T10:29:47;11.36;89.99
22069;DHT22;13887;57.196;-2.100;2023-05-10T10:34:51;11.39;89.96
22069;DHT22;13887;57.196;-2.100;2023-05-10T10:37:18;11.41;90.11
22069;DHT22;13887;57.196;-2.100;2023-05-10T10:39:48;11.44;90.05
22069;DHT22;13887;57.196;-2.100;2023-05-10T10:42:45;11.46;90.09
22069;DHT22;13887;57.196;-2.100;2023-05-10T10:45:16;11.45;90.19
22069;DHT22;13887;57.196;-2.100;2023-05-10T10:47:44;11.49;90.24
22069;DHT22;13887;57.196;-2.100;2023-05-10T10:50:11;11.51;90.18
22069;DHT22;13887;57.196;-2.100;2023-05-10T10:52:43;11.52;90.41
22069;DHT22;13887;57.196;-2.100;2023-05-10T10:55:19;11.49;90.60
22069;DHT22;13887;57.196;-2.100;2023-05-10T10:57:51;11.52;90.54
22069;DHT22;13887;57.196;-2.100;2023-05-10T11:02:54;11.52;90.41
22069;DHT22;13887;57.196;-2.100;2023-05-10T11:05:43;11.52;90.69
22069;DHT22;13887;57.196;-2.100;2023-05-10T11:10:40;11.53;90.41
22069;DHT22;13887;57.196;-2.100;2023-05-10T11:13:09;11.55;90.48
22069;DHT22;13887;57.196;-2.100;2023-05-10T11:15:40;11.55;90.50
22069;DHT22;13887;57.196;-2.100;2023-05-10T11:18:39;11.57;90.48
22069;DHT22;13887;57.196;-2.100;2023-05-10T11:21:09;11.60;90.24
22069;DHT22;13887;57.196;-2.100;2023-05-10T11:26:09;11.64;90.11
22069;DHT22;13887;57.196;-2.100;2023-05-10T11:28:44;11.69;89.89
22069;DHT22;13887;57.196;-2.100;2023-05-10T11:31:16;11.71;89.70
22069;DHT22;13887;57.196;-2.100;2023-05-10T11:33:46;11.74;89.64
22069;DHT22;13887;57.196;-2.100;2023-05-10T11:36:15;11.76;89.72
22069;DHT22;13887;57.196;-2.100;2023-05-10T11:38:43;11.78;89.83
22069;DHT22;13887;57.196;-2.100;2023-05-10T11:41:10;11.77;90.01
22069;DHT22;13887;57.196;-2.100;2023-05-10T11:43:41;11.78;89.97
22069;DHT22;13887;57.196;-2.100;2023-05-10T11:46:11;11.79;89.92
22069;DHT22;13887;57.196;-2.100;2023-05-10T11:48:39;11.81;90.08
22069;DHT22;13887;57.196;-2.100;2023-05-10T11:51:10;11.81;90.31
22069;DHT22;13887;57.196;-2.100;2023-05-10T11:53:37;11.78;90.46
22069;DHT22;13887;57.196;-2.100;2023-05-10T11:56:11;11.77;90.35
22069;DHT22;13887;57.196;-2.100;2023-05-10T11:58:39;11.79;90.37
22069;DHT22;13887;57.196;-2.100;2023-05-10T12:01:07;11.79;90.56
22069;DHT22;13887;57.196;-2.100;2023-05-10T12:03:34;11.77;90.69
22069;DHT22;13887;57.196;-2.100;2023-05-10T12:06:02;11.77;90.76
22069;DHT22;13887;57.196;-2.100;2023-05-10T12:08:30;11.76;90.66
22069;DHT22;13887;57.196;-2.100;2023-05-10T12:11:07;11.79;90.52
22069;DHT22;13887;57.196;-2.100;2023-05-10T12:13:39;11.83;90.33
22069;DHT22;13887;57.196;-2.100;2023-05-10T12:16:21;11.85;90.21
22069;DHT22;13887;57.196;-2.100;2023-05-10T12:18:50;11.87;90.38
22069;DHT22;13887;57.196;-2.100;2023-05-10T12:21:20;11.90;90.20
22069;DHT22;13887;57.196;-2.100;2023-05-10T12:23:52;11.93;90.31
22069;DHT22;13887;57.196;-2.100;2023-05-10T12:26:24;11.94;90.08
22069;DHT22;13887;57.196;-2.100;2023-05-10T12:28:54;11.98;90.00
22069;DHT22;13887;57.196;-2.100;2023-05-10T12:31:21;12.00;89.98
22069;DHT22;13887;57.196;-2.100;2023-05-10T12:33:48;12.00;89.96
22069;DHT22;13887;57.196;-2.100;2023-05-10T12:36:16;12.01;90.05
22069;DHT22;13887;57.196;-2.100;2023-05-10T12:38:45;12.02;89.98
22069;DHT22;13887;57.196;-2.100;2023-05-10T12:41:16;11.99;90.08
22069;DHT22;13887;57.196;-2.100;2023-05-10T12:43:44;11.98;90.08
22069;DHT22;13887;57.196;-2.100;2023-05-10T12:46:16;11.99;90.14
22069;DHT22;13887;57.196;-2.100;2023-05-10T12:48:44;12.01;90.11
22069;DHT22;13887;57.196;-2.100;2023-05-10T12:51:12;12.00;90.05
22069;DHT22;13887;57.196;-2.100;2023-05-10T12:53:42;12.02;89.98
22069;DHT22;13887;57.196;-2.100;2023-05-10T12:56:13;12.03;89.85
22069;DHT22;13887;57.196;-2.100;2023-05-10T12:58:39;12.06;89.89
22069;DHT22;13887;57.196;-2.100;2023-05-10T13:01:06;12.04;89.91
22069;DHT22;13887;57.196;-2.100;2023-05-10T13:03:33;12.01;90.12
22069;DHT22;13887;57.196;-2.100;2023-05-10T13:06:00;12.00;89.92
22069;DHT22;13887;57.196;-2.100;2023-05-10T13:08:27;12.00;90.08
22069;DHT22;13887;57.196;-2.100;2023-05-10T13:10:56;11.99;89.86
22069;DHT22;13887;57.196;-2.100;2023-05-10T13:13:23;11.99;90.00
22069;DHT22;13887;57.196;-2.100;2023-05-10T13:15:50;11.98;89.57
22069;DHT22;13887;57.196;-2.100;2023-05-10T13:18:16;12.01;89.74
22069;DHT22;13887;57.196;-2.100;2023-05-10T13:20:44;12.03;89.56
22069;DHT22;13887;57.196;-2.100;2023-05-10T13:23:11;12.03;89.68
22069;DHT22;13887;57.196;-2.100;2023-05-10T13:25:38;12.05;89.44
22069;DHT22;13887;57.196;-2.100;2023-05-10T13:28:04;12.07;89.39
22069;DHT22;13887;57.196;-2.100;2023-05-10T13:30:31;12.10;89.34
22069;DHT22;13887;57.196;-2.100;2023-05-10T13:32:58;12.07;89.45
22069;DHT22;13887;57.196;-2.100;2023-05-10T13:35:25;12.07;89.59
22069;DHT22;13887;57.196;-2.100;2023-05-10T13:37:52;12.10;89.70
22069;DHT22;13887;57.196;-2.100;2023-05-10T13:40:20;12.03;89.81
22069;DHT22;13887;57.196;-2.100;2023-05-10T13:42:46;12.05;89.52
22069;DHT22;13887;57.196;-2.100;2023-05-10T13:45:13;12.06;89.57
22069;DHT22;13887;57.196;-2.100;2023-05-10T13:47:41;12.03;89.69
22069;DHT22;13887;57.196;-2.100;2023-05-10T13:50:08;12.04;89.58
22069;DHT22;13887;57.196;-2.100;2023-05-10T13:52:35;12.06;89.38
22069;DHT22;13887;57.196;-2.100;2023-05-10T13:55:02;12.05;89.45
22069;DHT22;13887;57.196;-2.100;2023-05-10T13:57:29;12.08;89.38
22069;DHT22;13887;57.196;-2.100;2023-05-10T13:59:56;12.08;89.39
22069;DHT22;13887;57.196;-2.100;2023-05-10T14:02:24;12.06;89.23
22069;DHT22;13887;57.196;-2.100;2023-05-10T14:04:51;12.06;89.37
22069;DHT22;13887;57.196;-2.100;2023-05-10T14:07:18;12.07;89.09
22069;DHT22;13887;57.196;-2.100;2023-05-10T14:09:45;12.10;89.04
22069;DHT22;13887;57.196;-2.100;2023-05-10T14:12:12;12.06;89.10
22069;DHT22;13887;57.196;-2.100;2023-05-10T14:14:41;12.01;88.95
22069;DHT22;13887;57.196;-2.100;2023-05-10T14:17:07;12.05;88.87
22069;DHT22;13887;57.196;-2.100;2023-05-10T14:19:37;12.06;88.73
22069;DHT22;13887;57.196;-2.100;2023-05-10T14:22:05;12.11;88.73
22069;DHT22;13887;57.196;-2.100;2023-05-10T14:24:32;12.13;88.44
22069;DHT22;13887;57.196;-2.100;2023-05-10T14:26:59;12.13;88.59
22069;DHT22;13887;57.196;-2.100;2023-05-10T14:29:26;12.13;88.57
22069;DHT22;13887;57.196;-2.100;2023-05-10T14:31:53;12.14;88.46
22069;DHT22;13887;57.196;-2.100;2023-05-10T14:34:20;12.14;88.41
22069;DHT22;13887;57.196;-2.100;2023-05-10T14:36:47;12.13;88.16
22069;DHT22;13887;57.196;-2.100;2023-05-10T14:39:14;12.15;88.43
22069;DHT22;13887;57.196;-2.100;2023-05-10T14:41:41;12.14;88.34
22069;DHT22;13887;57.196;-2.100;2023-05-10T14:44:10;12.15;87.89
22069;DHT22;13887;57.196;-2.100;2023-05-10T14:46:37;12.14;88.35
22069;DHT22;13887;57.196;-2.100;2023-05-10T14:49:04;12.14;88.22
22069;DHT22;13887;57.196;-2.100;2023-05-10T14:51:31;12.11;87.95
22069;DHT22;13887;57.196;-2.100;2023-05-10T14:53:58;12.07;87.91
22069;DHT22;13887;57.196;-2.100;2023-05-10T14:56:25;12.04;87.88
22069;DHT22;13887;57.196;-2.100;2023-05-10T14:58:55;12.01;87.64
22069;DHT22;13887;57.196;-2.100;2023-05-10T15:01:23;12.00;87.58
22069;DHT22;13887;57.196;-2.100;2023-05-10T15:03:50;12.05;87.80
22069;DHT22;13887;57.196;-2.100;2023-05-10T15:06:23;12.08;87.62
22069;DHT22;13887;57.196;-2.100;2023-05-10T15:08:51;12.12;87.42
22069;DHT22;13887;57.196;-2.100;2023-05-10T15:11:18;12.12;87.67
22069;DHT22;13887;57.196;-2.100;2023-05-10T15:13:45;12.08;87.61
22069;DHT22;13887;57.196;-2.100;2023-05-10T15:16:12;12.04;87.71
22069;DHT22;13887;57.196;-2.100;2023-05-10T15:18:39;12.01;87.38
22069;DHT22;13887;57.196;-2.100;2023-05-10T15:21:06;12.03;87.06
22069;DHT22;13887;57.196;-2.100;2023-05-10T15:23:33;12.05;86.80
22069;DHT22;13887;57.196;-2.100;2023-05-10T15:26:00;12.10;86.54
22069;DHT22;13887;57.196;-2.100;2023-05-10T15:28:27;12.13;86.58
22069;DHT22;13887;57.196;-2.100;2023-05-10T15:30:54;12.13;86.94
22069;DHT22;13887;57.196;-2.100;2023-05-10T15:33:21;12.14;86.67
22069;DHT22;13887;57.196;-2.100;2023-05-10T15:35:49;12.14;86.73
22069;DHT22;13887;57.196;-2.100;2023-05-10T15:38:16;12.16;86.69
22069;DHT22;13887;57.196;-2.100;2023-05-10T15:40:43;12.16;86.74
22069;DHT22;13887;57.196;-2.100;2023-05-10T15:43:10;12.12;86.56
22069;DHT22;13887;57.196;-2.100;2023-05-10T15:45:37;12.10;86.86
22069;DHT22;13887;57.196;-2.100;2023-05-10T15:48:04;12.10;87.16
22069;DHT22;13887;57.196;-2.100;2023-05-10T15:50:31;12.08;87.10
22069;DHT22;13887;57.196;-2.100;2023-05-10T15:52:58;12.11;87.12